createdAt,value
2019-03-20T00:01:08.202Z,99.90
2019-03-20T00:03:37.191Z,99.90
2019-03-20T00:06:06.147Z,99.90
2019-03-20T00:08:35.097Z,99.90
2019-03-20T00:11:03.912Z,99.90
2019-03-20T00:13:32.765Z,99.90
2019-03-20T00:16:01.674Z,99.90
2019-03-20T00:18:30.950Z,99.90
2019-03-20T00:20:59.915Z,99.90
2019-03-20T00:23:29.788Z,99.90
2019-03-20T00:25:58.611Z,99.90
2019-03-20T00:28:27.531Z,99.90
2019-03-20T00:30:56.428Z,99.90
2019-03-20T00:33:25.413Z,99.90
2019-03-20T00:35:54.453Z,99.90
2019-03-20T00:38:24.079Z,99.90
2019-03-20T00:40:52.946Z,99.90
2019-03-20T00:43:21.795Z,99.90
2019-03-20T00:45:50.559Z,99.90
2019-03-20T00:48:20.045Z,99.90
2019-03-20T00:50:48.883Z,99.90
2019-03-20T00:53:17.626Z,99.90
2019-03-20T00:55:46.534Z,99.90
2019-03-20T00:58:15.459Z,99.90
2019-03-20T01:00:44.227Z,99.90
2019-03-20T01:03:13.202Z,99.90
2019-03-20T01:05:42.259Z,99.90
2019-03-20T01:08:11.099Z,99.90
2019-03-20T01:10:40.261Z,99.90
2019-03-20T01:13:09.382Z,99.90
2019-03-20T01:15:38.339Z,99.90
2019-03-20T01:18:07.092Z,99.90
2019-03-20T01:20:35.994Z,99.90
2019-03-20T01:23:05.152Z,99.90
2019-03-20T01:25:35.138Z,99.90
2019-03-20T01:28:04.970Z,99.90
2019-03-20T01:30:35.249Z,99.90
2019-03-20T01:33:05.964Z,99.90
2019-03-20T01:35:35.146Z,99.90
2019-03-20T01:38:04.008Z,99.90
2019-03-20T01:40:32.900Z,99.90
2019-03-20T01:43:02.121Z,99.90
2019-03-20T01:45:30.930Z,99.90
2019-03-20T01:47:59.856Z,99.90
2019-03-20T01:50:28.892Z,99.90
2019-03-20T01:52:58.076Z,99.90
2019-03-20T01:55:26.951Z,99.90
2019-03-20T01:57:56.264Z,99.90
2019-03-20T02:00:25.336Z,99.90
2019-03-20T02:02:54.065Z,99.90
2019-03-20T02:05:23.236Z,99.90
2019-03-20T02:07:52.629Z,99.90
2019-03-20T02:10:21.518Z,99.90
2019-03-20T02:12:50.331Z,99.90
2019-03-20T02:15:19.383Z,99.90
2019-03-20T02:17:48.376Z,99.90
2019-03-20T02:20:17.609Z,99.90
2019-03-20T02:22:46.788Z,99.90
2019-03-20T02:25:17.055Z,99.90
2019-03-20T02:27:46.250Z,99.90
2019-03-20T02:30:16.527Z,99.90
2019-03-20T02:32:45.666Z,99.90
2019-03-20T02:35:15.401Z,99.90
2019-03-20T02:37:44.279Z,99.90
2019-03-20T02:40:13.428Z,99.90
2019-03-20T02:42:42.313Z,99.90
2019-03-20T02:45:13.177Z,99.90
2019-03-20T02:47:42.296Z,99.90
2019-03-20T02:50:11.600Z,99.90
2019-03-20T02:52:40.617Z,99.90
2019-03-20T02:55:10.037Z,99.90
2019-03-20T02:57:39.084Z,99.90
2019-03-20T03:00:10.272Z,99.90
2019-03-20T03:02:39.201Z,99.90
2019-03-20T03:05:08.700Z,99.90
2019-03-20T03:07:37.633Z,99.90
2019-03-20T03:10:07.307Z,99.90
2019-03-20T03:12:36.213Z,99.90
2019-03-20T03:15:06.012Z,99.90
2019-03-20T03:17:34.919Z,99.90
2019-03-20T03:20:04.383Z,99.90
2019-03-20T03:22:33.304Z,99.90
2019-03-20T03:25:02.125Z,99.90
2019-03-20T03:27:31.360Z,99.90
2019-03-20T03:30:00.568Z,99.90
2019-03-20T03:32:29.738Z,99.90
2019-03-20T03:34:58.957Z,99.90
2019-03-20T03:37:27.877Z,99.90
2019-03-20T03:39:56.684Z,99.90
2019-03-20T03:42:25.916Z,99.90
2019-03-20T03:44:54.702Z,99.90
2019-03-20T03:47:23.610Z,99.90
2019-03-20T03:49:52.602Z,99.90
2019-03-20T03:52:21.440Z,99.90
2019-03-20T03:54:50.268Z,99.90
2019-03-20T03:57:19.280Z,99.90
2019-03-20T03:59:49.231Z,99.90
2019-03-20T04:02:18.126Z,99.90
2019-03-20T04:04:47.140Z,99.90
2019-03-20T04:07:16.304Z,99.90
2019-03-20T04:09:45.132Z,99.90
2019-03-20T04:12:14.005Z,99.90
2019-03-20T04:14:42.862Z,99.90
2019-03-20T04:17:27.435Z,99.90
2019-03-20T04:19:56.269Z,99.90
2019-03-20T04:22:25.198Z,99.90
2019-03-20T04:24:53.972Z,99.90
2019-03-20T04:27:22.898Z,99.90
2019-03-20T04:29:52.048Z,99.90
2019-03-20T04:32:21.730Z,99.90
2019-03-20T04:34:50.551Z,99.90
2019-03-20T04:37:19.429Z,99.90
2019-03-20T04:39:48.347Z,99.90
2019-03-20T04:42:17.159Z,99.90
2019-03-20T04:44:45.903Z,99.90
2019-03-20T04:47:14.795Z,99.90
2019-03-20T04:49:43.627Z,99.90
2019-03-20T04:52:12.384Z,99.90
2019-03-20T04:54:41.174Z,99.90
2019-03-20T04:57:10.008Z,99.90
2019-03-20T04:59:38.832Z,99.90
2019-03-20T05:02:07.651Z,99.90
2019-03-20T05:04:36.452Z,99.90
2019-03-20T05:07:05.742Z,99.90
2019-03-20T05:09:34.495Z,99.90
2019-03-20T05:12:03.586Z,99.90
2019-03-20T05:14:32.964Z,99.90
2019-03-20T05:17:01.948Z,99.90
2019-03-20T05:19:31.288Z,99.90
2019-03-20T05:22:00.139Z,99.90
2019-03-20T05:24:28.874Z,99.90
2019-03-20T05:26:57.939Z,99.90
2019-03-20T05:29:26.683Z,99.90
2019-03-20T05:31:55.770Z,99.90
2019-03-20T05:34:24.543Z,99.90
2019-03-20T05:36:53.459Z,99.90
2019-03-20T05:39:22.321Z,99.90
2019-03-20T05:41:51.533Z,99.90
2019-03-20T05:44:20.736Z,99.90
2019-03-20T05:46:50.056Z,99.90
2019-03-20T05:49:18.828Z,99.90
2019-03-20T05:51:47.643Z,99.90
2019-03-20T05:54:16.621Z,99.90
2019-03-20T05:57:04.761Z,99.90
2019-03-20T05:59:33.669Z,99.90
2019-03-20T06:02:02.572Z,99.90
2019-03-20T06:04:31.485Z,99.90
2019-03-20T06:07:00.412Z,99.90
2019-03-20T06:09:29.579Z,99.90
2019-03-20T06:11:58.465Z,99.90
2019-03-20T06:14:27.299Z,99.90
2019-03-20T06:16:56.210Z,99.90
2019-03-20T06:19:25.015Z,99.90
2019-03-20T06:21:53.964Z,99.90
2019-03-20T06:24:22.859Z,99.90
2019-03-20T06:26:51.772Z,99.90
2019-03-20T06:29:20.547Z,99.90
2019-03-20T06:31:50.381Z,99.90
2019-03-20T06:34:19.363Z,99.90
2019-03-20T06:36:48.188Z,99.90
2019-03-20T06:39:17.019Z,99.90
2019-03-20T06:41:46.371Z,99.90
2019-03-20T06:44:15.218Z,99.90
2019-03-20T06:46:44.049Z,99.90
2019-03-20T06:49:13.277Z,99.90
2019-03-20T06:51:42.440Z,99.90
2019-03-20T06:54:11.457Z,99.90
2019-03-20T06:56:40.275Z,99.90
2019-03-20T06:59:50.317Z,99.90
2019-03-20T07:02:20.626Z,99.90
2019-03-20T07:05:30.144Z,99.90
2019-03-20T07:07:58.697Z,99.90
2019-03-20T07:11:04.941Z,99.90
2019-03-20T07:13:34.443Z,99.90
2019-03-20T07:16:03.929Z,99.90
2019-03-20T07:18:32.893Z,99.90
2019-03-20T07:21:02.297Z,99.90
2019-03-20T07:23:31.359Z,99.90
2019-03-20T07:26:00.229Z,99.90
2019-03-20T07:28:29.120Z,99.90
2019-03-20T07:30:57.961Z,99.90
2019-03-20T07:33:27.220Z,99.90
2019-03-20T07:35:56.116Z,99.90
2019-03-20T07:38:25.283Z,99.90
2019-03-20T07:40:54.415Z,99.90
2019-03-20T07:43:23.254Z,99.90
2019-03-20T07:45:52.488Z,99.90
2019-03-20T07:48:22.595Z,99.90
2019-03-20T07:50:52.029Z,99.90
2019-03-20T07:53:20.946Z,99.90
2019-03-20T07:55:50.127Z,99.90
2019-03-20T07:58:19.468Z,99.90
2019-03-20T08:00:49.028Z,99.90
2019-03-20T08:03:18.979Z,99.90
2019-03-20T08:05:48.902Z,99.90
2019-03-20T08:08:17.714Z,99.90
2019-03-20T08:10:47.142Z,99.90
2019-03-20T08:13:16.506Z,99.90
2019-03-20T08:15:45.651Z,99.90
2019-03-20T08:18:14.905Z,99.90
2019-03-20T08:20:43.707Z,99.90
2019-03-20T08:23:12.679Z,99.90
2019-03-20T08:25:41.472Z,99.90
2019-03-20T08:28:10.551Z,99.90
2019-03-20T08:30:39.808Z,99.90
2019-03-20T08:33:08.750Z,99.90
2019-03-20T08:35:37.872Z,99.90
2019-03-20T08:38:17.446Z,99.90
2019-03-20T08:40:37.948Z,99.90
2019-03-20T08:43:06.891Z,99.90
2019-03-20T08:45:35.966Z,99.90
2019-03-20T08:48:05.197Z,99.90
2019-03-20T08:50:34.060Z,99.90
2019-03-20T08:53:02.857Z,99.90
2019-03-20T08:55:31.768Z,99.90
2019-03-20T08:58:00.633Z,99.90
2019-03-20T09:00:29.743Z,99.90
2019-03-20T09:02:58.499Z,99.90
2019-03-20T09:05:27.753Z,99.90
2019-03-20T09:07:56.731Z,99.30
2019-03-20T09:10:25.986Z,99.20
2019-03-20T09:12:55.179Z,98.00
2019-03-20T09:15:24.936Z,99.50
2019-03-20T09:17:53.766Z,96.70
2019-03-20T09:20:22.800Z,96.00
2019-03-20T09:22:51.811Z,93.80
2019-03-20T09:25:20.615Z,93.60
2019-03-20T09:27:49.698Z,94.30
2019-03-20T09:30:19.901Z,93.60
2019-03-20T09:32:48.695Z,91.70
2019-03-20T09:35:17.564Z,90.80
2019-03-20T09:37:51.833Z,90.40
2019-03-20T09:40:17.514Z,91.10
2019-03-20T09:42:46.510Z,90.20
2019-03-20T09:45:16.153Z,91.00
2019-03-20T09:47:45.012Z,90.80
2019-03-20T09:50:15.790Z,88.50
2019-03-20T09:52:44.736Z,85.50
2019-03-20T09:55:14.596Z,87.80
2019-03-20T09:57:43.944Z,88.10
2019-03-20T10:00:23.125Z,87.00
2019-03-20T10:02:52.224Z,86.50
2019-03-20T10:05:21.358Z,85.90
2019-03-20T10:07:50.228Z,85.10
2019-03-20T10:10:20.593Z,84.60
2019-03-20T10:12:49.604Z,84.20
2019-03-20T10:15:19.434Z,85.40
2019-03-20T10:17:48.352Z,82.80
2019-03-20T10:20:18.710Z,82.70
2019-03-20T10:22:47.609Z,86.50
2019-03-20T10:25:17.166Z,83.70
2019-03-20T10:27:46.140Z,86.80
2019-03-20T10:30:17.355Z,85.70
2019-03-20T10:32:46.215Z,84.30
2019-03-20T10:35:15.283Z,76.10
2019-03-20T10:37:44.870Z,74.30
2019-03-20T10:40:15.765Z,75.40
2019-03-20T10:42:44.624Z,73.50
2019-03-20T10:45:14.012Z,74.70
2019-03-20T10:47:43.184Z,71.00
2019-03-20T10:50:14.327Z,78.50
2019-03-20T10:52:49.526Z,74.20
2019-03-20T10:55:20.526Z,71.50
2019-03-20T10:57:49.600Z,69.40
2019-03-20T11:00:19.568Z,69.40
2019-03-20T11:02:48.522Z,70.80
2019-03-20T11:05:18.765Z,68.40
2019-03-20T11:07:47.723Z,70.70
2019-03-20T11:10:20.294Z,72.10
2019-03-20T11:12:51.574Z,68.70
2019-03-20T11:15:20.756Z,69.10
2019-03-20T11:17:49.770Z,67.60
2019-03-20T11:20:18.881Z,69.80
2019-03-20T11:22:48.247Z,69.40
2019-03-20T11:25:18.390Z,64.80
2019-03-20T11:27:48.919Z,63.00
2019-03-20T11:30:22.315Z,66.40
2019-03-20T11:32:51.508Z,61.90
2019-03-20T11:35:20.762Z,63.40
2019-03-20T11:37:49.579Z,63.40
2019-03-20T11:40:20.696Z,63.60
2019-03-20T11:42:49.920Z,68.60
2019-03-20T11:45:18.915Z,65.60
2019-03-20T11:47:47.710Z,64.20
2019-03-20T11:50:19.682Z,63.40
2019-03-20T11:52:49.221Z,62.80
2019-03-20T11:55:18.077Z,60.00
2019-03-20T11:57:47.315Z,61.70
2019-03-20T12:00:17.215Z,63.20
2019-03-20T12:02:46.061Z,61.00
2019-03-20T12:05:15.289Z,61.30
2019-03-20T12:07:44.019Z,59.20
2019-03-20T12:10:15.845Z,61.20
2019-03-20T12:12:45.171Z,60.50
2019-03-20T12:15:14.301Z,59.70
2019-03-20T12:17:43.194Z,59.60
2019-03-20T12:20:15.118Z,60.40
2019-03-20T12:22:44.354Z,61.40
2019-03-20T12:25:21.303Z,60.60
2019-03-20T12:27:50.393Z,59.30
2019-03-20T12:30:21.060Z,58.70
2019-03-20T12:32:50.881Z,56.40
2019-03-20T12:35:19.887Z,59.10
2019-03-20T12:37:48.819Z,57.90
2019-03-20T12:40:25.581Z,59.50
2019-03-20T12:42:54.884Z,62.20
2019-03-20T12:45:26.201Z,59.90
2019-03-20T12:47:55.334Z,58.30
2019-03-20T12:50:24.631Z,57.20
2019-03-20T12:52:53.561Z,54.00
2019-03-20T12:55:22.589Z,55.30
2019-03-20T12:57:51.453Z,57.50
2019-03-20T13:00:21.383Z,57.00
2019-03-20T13:02:50.948Z,57.40
2019-03-20T13:05:20.179Z,58.80
2019-03-20T13:07:49.150Z,57.80
2019-03-20T13:10:19.202Z,56.60
2019-03-20T13:12:48.369Z,58.90
2019-03-20T13:15:22.016Z,57.20
2019-03-20T13:17:52.542Z,54.80
2019-03-20T13:20:21.731Z,56.10
2019-03-20T13:23:00.973Z,55.70
2019-03-20T13:25:30.478Z,57.20
2019-03-20T13:27:59.762Z,57.80
2019-03-20T13:30:40.922Z,57.90
2019-03-20T13:33:09.868Z,56.50
2019-03-20T13:35:38.864Z,56.90
2019-03-20T13:38:07.763Z,56.00
2019-03-20T13:40:36.729Z,58.00
2019-03-20T13:43:06.131Z,56.80
2019-03-20T13:45:35.043Z,56.60
2019-03-20T13:48:04.252Z,57.20
2019-03-20T13:50:33.216Z,57.50
2019-03-20T13:53:02.248Z,58.00
2019-03-20T13:55:31.566Z,57.70
2019-03-20T13:58:00.367Z,56.40
2019-03-20T14:00:29.107Z,56.80
2019-03-20T14:02:58.531Z,57.50
2019-03-20T14:05:27.611Z,57.80
2019-03-20T14:07:56.472Z,57.50
2019-03-20T14:10:25.912Z,58.20
2019-03-20T14:12:54.728Z,58.90
2019-03-20T14:15:23.708Z,60.90
2019-03-20T14:17:52.695Z,61.10
2019-03-20T14:20:22.970Z,60.50
2019-03-20T14:22:51.759Z,59.30
2019-03-20T14:25:20.792Z,58.70
2019-03-20T14:27:50.003Z,59.10
2019-03-20T14:30:21.231Z,59.40
2019-03-20T14:32:50.456Z,62.80
2019-03-20T14:35:20.040Z,57.90
2019-03-20T14:37:48.759Z,58.10
2019-03-20T14:40:19.450Z,59.10
2019-03-20T14:42:48.423Z,59.20
2019-03-20T14:45:17.309Z,59.00
2019-03-20T14:47:46.511Z,59.40
2019-03-20T14:50:17.380Z,59.60
2019-03-20T14:52:46.180Z,60.50
2019-03-20T14:55:15.169Z,60.40
2019-03-20T14:57:43.989Z,58.90
2019-03-20T15:00:32.373Z,59.20
2019-03-20T15:03:01.949Z,58.70
2019-03-20T15:05:31.802Z,59.10
2019-03-20T15:08:00.666Z,59.00
2019-03-20T15:10:30.610Z,59.30
2019-03-20T15:12:59.408Z,57.60
2019-03-20T15:15:50.257Z,58.20
2019-03-20T15:18:20.139Z,59.50
2019-03-20T15:20:49.056Z,58.90
2019-03-20T15:23:17.987Z,59.80
2019-03-20T15:25:47.025Z,60.10
2019-03-20T15:28:17.139Z,60.10
2019-03-20T15:30:47.483Z,58.90
2019-03-20T15:33:16.620Z,59.10
2019-03-20T15:35:51.295Z,59.10
2019-03-20T15:38:21.043Z,60.80
2019-03-20T15:40:56.383Z,60.50
2019-03-20T15:43:23.513Z,61.30
2019-03-20T15:45:52.590Z,60.80
2019-03-20T15:48:21.358Z,61.70
2019-03-20T15:50:50.225Z,62.00
2019-03-20T15:53:20.011Z,61.90
2019-03-20T15:55:48.956Z,63.20
2019-03-20T15:58:17.733Z,63.50
2019-03-20T16:00:46.752Z,62.40
2019-03-20T16:03:16.806Z,62.20
2019-03-20T16:05:45.695Z,62.40
2019-03-20T16:08:15.534Z,65.00
2019-03-20T16:10:44.439Z,65.50
2019-03-20T16:13:13.516Z,65.20
2019-03-20T16:15:42.287Z,65.40
2019-03-20T16:18:11.839Z,65.00
2019-03-20T16:20:41.159Z,66.00
2019-03-20T16:23:11.339Z,68.30
2019-03-20T16:25:40.536Z,68.90
2019-03-20T16:28:09.484Z,68.50
2019-03-20T16:30:38.837Z,69.60
2019-03-20T16:33:07.771Z,71.20
2019-03-20T16:35:36.893Z,71.90
2019-03-20T16:38:07.065Z,72.00
2019-03-20T16:40:36.524Z,72.50
2019-03-20T16:43:05.774Z,73.40
2019-03-20T16:45:34.842Z,73.50
2019-03-20T16:48:04.286Z,73.40
2019-03-20T16:50:33.149Z,74.60
2019-03-20T16:53:02.600Z,75.60
2019-03-20T16:55:31.504Z,75.80
2019-03-20T16:58:00.459Z,77.40
2019-03-20T17:00:29.564Z,78.40
2019-03-20T17:02:58.531Z,79.70
2019-03-20T17:05:28.435Z,79.20
2019-03-20T17:07:57.331Z,80.50
2019-03-20T17:10:31.403Z,82.10
2019-03-20T17:13:00.227Z,82.30
2019-03-20T17:15:29.750Z,83.70
2019-03-20T17:17:58.668Z,84.90
2019-03-20T17:20:27.778Z,85.50
2019-03-20T17:22:56.790Z,87.30
2019-03-20T17:25:25.725Z,88.00
2019-03-20T17:27:54.640Z,89.30
2019-03-20T17:30:25.729Z,90.50
2019-03-20T17:32:54.962Z,90.50
2019-03-20T17:35:23.996Z,91.30
2019-03-20T17:37:53.093Z,91.80
2019-03-20T17:40:21.903Z,92.10
2019-03-20T17:42:51.088Z,92.80
2019-03-20T17:45:20.556Z,93.20
2019-03-20T17:47:49.847Z,93.80
2019-03-20T17:50:21.048Z,99.90
2019-03-20T17:52:50.454Z,99.90
2019-03-20T17:55:20.301Z,99.90
2019-03-20T17:57:49.565Z,99.90
2019-03-20T18:00:34.434Z,99.90
2019-03-20T18:03:03.282Z,99.90
2019-03-20T18:05:32.264Z,99.90
2019-03-20T18:08:01.036Z,99.90
2019-03-20T18:10:29.810Z,99.90
2019-03-20T18:12:59.004Z,99.90
2019-03-20T18:15:27.900Z,99.90
2019-03-20T18:17:57.105Z,99.90
2019-03-20T18:20:25.969Z,99.90
2019-03-20T18:22:54.935Z,99.90
2019-03-20T18:25:24.734Z,99.90
2019-03-20T18:27:53.621Z,99.90
2019-03-20T18:30:23.294Z,99.90
2019-03-20T18:32:52.336Z,99.90
2019-03-20T18:35:21.120Z,99.90
2019-03-20T18:37:50.435Z,99.90
2019-03-20T18:40:21.333Z,99.90
2019-03-20T18:42:50.643Z,99.90
2019-03-20T18:45:20.054Z,99.90
2019-03-20T18:47:49.036Z,99.90
2019-03-20T18:50:18.741Z,99.90
2019-03-20T18:52:48.056Z,99.90
2019-03-20T18:55:17.907Z,99.90
2019-03-20T18:57:46.847Z,99.90
2019-03-20T19:00:20.917Z,99.90
2019-03-20T19:02:50.601Z,99.90
2019-03-20T19:05:25.729Z,99.90
2019-03-20T19:07:54.647Z,99.90
2019-03-20T19:10:23.533Z,99.90
2019-03-20T19:12:52.350Z,99.90
2019-03-20T19:15:21.155Z,99.90
2019-03-20T19:17:50.019Z,99.90
2019-03-20T19:20:20.035Z,99.90
2019-03-20T19:22:49.012Z,99.90
2019-03-20T19:25:17.945Z,99.90
2019-03-20T19:27:47.647Z,99.90
2019-03-20T19:30:18.614Z,99.90
2019-03-20T19:32:47.387Z,99.90
2019-03-20T19:35:16.446Z,99.90
2019-03-20T19:37:45.276Z,99.90
2019-03-20T19:40:14.893Z,99.90
2019-03-20T19:42:43.650Z,99.90
2019-03-20T19:45:12.727Z,99.90
2019-03-20T19:47:42.128Z,99.90
2019-03-20T19:50:12.632Z,99.90
2019-03-20T19:52:41.824Z,99.90
2019-03-20T19:55:11.231Z,99.90
2019-03-20T19:57:40.127Z,99.90
2019-03-20T20:00:12.344Z,99.90
2019-03-20T20:02:41.253Z,99.90
2019-03-20T20:05:15.611Z,99.90
2019-03-20T20:07:41.362Z,99.90
2019-03-20T20:10:11.639Z,99.90
2019-03-20T20:12:40.423Z,99.90
2019-03-20T20:15:13.244Z,99.90
2019-03-20T20:17:42.463Z,99.90
2019-03-20T20:20:13.256Z,99.90
2019-03-20T20:22:42.142Z,99.90
2019-03-20T20:25:11.108Z,99.90
2019-03-20T20:27:40.183Z,99.90
2019-03-20T20:30:12.340Z,99.90
2019-03-20T20:32:41.128Z,99.90
2019-03-20T20:35:10.104Z,99.90
2019-03-20T20:37:38.928Z,99.90
2019-03-20T20:40:09.046Z,99.90
2019-03-20T20:42:42.852Z,99.90
2019-03-20T20:45:08.860Z,99.90
2019-03-20T20:47:37.699Z,99.90
2019-03-20T20:50:06.943Z,99.90
2019-03-20T20:52:36.703Z,99.90
2019-03-20T20:55:06.533Z,99.90
2019-03-20T20:57:35.476Z,99.90
2019-03-20T21:00:06.403Z,99.90
2019-03-20T21:02:35.587Z,99.90
2019-03-20T21:05:05.191Z,99.90
2019-03-20T21:07:33.999Z,99.90
2019-03-20T21:10:03.074Z,99.90
2019-03-20T21:12:31.940Z,99.90
2019-03-20T21:15:00.782Z,99.90
2019-03-20T21:17:42.855Z,99.90
2019-03-20T21:20:12.262Z,99.90
2019-03-20T21:23:27.725Z,99.90
2019-03-20T21:25:59.010Z,99.90
2019-03-20T21:29:17.351Z,99.90
2019-03-20T21:32:06.702Z,99.90
2019-03-20T21:35:24.027Z,99.90
2019-03-20T21:38:04.308Z,99.90
2019-03-20T21:41:12.580Z,99.90
2019-03-20T21:44:15.578Z,99.90
2019-03-20T21:47:23.355Z,99.90
2019-03-20T21:49:52.776Z,99.90
2019-03-20T21:52:22.212Z,99.90
2019-03-20T21:55:28.499Z,99.90
2019-03-20T21:58:03.398Z,99.90
2019-03-20T22:01:09.668Z,99.90
2019-03-20T22:03:39.320Z,99.90
2019-03-20T22:06:54.842Z,99.90
2019-03-20T22:09:46.506Z,99.90
2019-03-20T22:12:29.032Z,99.90
2019-03-20T22:15:09.377Z,99.90
2019-03-20T22:18:32.761Z,99.90
2019-03-20T22:21:11.858Z,99.90
2019-03-20T22:24:16.087Z,99.90
2019-03-20T22:27:08.239Z,99.90
2019-03-20T22:29:37.612Z,99.90
2019-03-20T22:32:51.162Z,99.90
2019-03-20T22:35:49.376Z,99.90
2019-03-20T22:39:15.466Z,99.90
2019-03-20T22:42:10.148Z,99.90
2019-03-20T22:45:10.187Z,99.90
2019-03-20T22:48:22.443Z,99.90
2019-03-20T22:51:04.083Z,99.90
2019-03-20T22:54:11.081Z,99.90
2019-03-20T22:57:04.306Z,99.90
2019-03-20T22:59:33.930Z,99.90
2019-03-20T23:02:14.255Z,99.90
2019-03-20T23:04:46.876Z,99.90
2019-03-20T23:07:16.201Z,99.90
2019-03-20T23:09:45.613Z,99.90
2019-03-20T23:12:17.879Z,99.90
2019-03-20T23:14:47.319Z,99.90
2019-03-20T23:17:17.246Z,99.90
2019-03-20T23:19:47.186Z,99.90
2019-03-20T23:22:16.551Z,99.90
2019-03-20T23:24:46.911Z,99.90
2019-03-20T23:27:22.790Z,99.90
2019-03-20T23:29:52.551Z,99.90
2019-03-20T23:32:22.172Z,99.90
2019-03-20T23:34:51.982Z,99.90
2019-03-20T23:37:21.384Z,99.90
2019-03-20T23:39:50.685Z,99.90
2019-03-20T23:42:20.725Z,99.90
2019-03-20T23:44:50.305Z,99.90
2019-03-20T23:47:25.563Z,99.90
2019-03-20T23:49:54.811Z,99.90
2019-03-20T23:52:24.292Z,99.90
2019-03-20T23:54:55.407Z,99.90
2019-03-20T23:57:24.755Z,99.90
2019-03-20T23:59:55.496Z,99.90
